createdAt,value
2019-04-28T00:04:15.868Z,0.97
2019-04-28T00:09:11.365Z,0.80
2019-04-28T00:14:03.066Z,0.80
2019-04-28T00:18:56.384Z,1.17
2019-04-28T00:24:24.148Z,0.97
2019-04-28T00:29:17.458Z,0.87
2019-04-28T00:34:11.472Z,0.90
2019-04-28T00:39:08.321Z,1.00
2019-04-28T00:44:01.959Z,1.00
2019-04-28T00:48:55.387Z,0.90
2019-04-28T00:53:48.737Z,0.87
2019-04-28T00:58:42.067Z,0.80
2019-04-28T01:03:35.819Z,0.77
2019-04-28T01:08:30.805Z,0.73
2019-04-28T01:13:23.890Z,0.90
2019-04-28T01:18:30.344Z,0.90
2019-04-28T01:23:24.235Z,1.47
2019-04-28T01:28:17.646Z,1.20
2019-04-28T01:33:42.386Z,1.00
2019-04-28T01:38:35.947Z,1.07
2019-04-28T01:43:31.133Z,1.20
2019-04-28T01:48:22.591Z,1.10
2019-04-28T01:53:15.997Z,0.90
2019-04-28T01:58:09.603Z,1.00
2019-04-28T02:03:02.614Z,0.80
2019-04-28T02:07:56.162Z,1.00
2019-04-28T02:12:50.338Z,1.07
2019-04-28T02:17:43.028Z,1.00
2019-04-28T02:22:46.877Z,0.97
2019-04-28T02:27:40.229Z,1.40
2019-04-28T02:32:33.495Z,1.00
2019-04-28T02:37:27.107Z,0.90
2019-04-28T02:42:21.162Z,1.20
2019-04-28T02:47:14.478Z,0.70
2019-04-28T02:52:26.052Z,1.10
2019-04-28T02:57:20.797Z,1.13
2019-04-28T03:02:12.809Z,0.90
2019-04-28T03:07:06.182Z,0.97
2019-04-28T03:12:01.381Z,1.10
2019-04-28T03:16:52.966Z,1.13
2019-04-28T03:21:46.382Z,1.13
2019-04-28T03:26:50.927Z,1.20
2019-04-28T03:32:16.074Z,1.10
2019-04-28T03:36:47.324Z,1.23
2019-04-28T03:41:40.871Z,0.80
2019-04-28T03:46:35.491Z,0.93
2019-04-28T03:51:30.878Z,1.07
2019-04-28T03:56:22.417Z,1.20
2019-04-28T04:01:16.134Z,0.93
2019-04-28T04:06:10.532Z,0.93
2019-04-28T04:11:13.857Z,0.90
2019-04-28T04:16:12.715Z,1.17
2019-04-28T04:21:06.210Z,0.97
2019-04-28T04:26:01.761Z,1.00
2019-04-28T04:30:54.137Z,1.17
2019-04-28T04:35:47.477Z,1.00
2019-04-28T04:40:41.460Z,1.50
2019-04-28T04:45:34.250Z,1.20
2019-04-28T04:50:27.589Z,1.00
2019-04-28T04:55:21.227Z,1.30
2019-04-28T05:00:20.933Z,1.30
2019-04-28T05:05:16.584Z,1.00
2019-04-28T05:10:10.635Z,1.20
2019-04-28T05:15:04.441Z,1.30
2019-04-28T05:19:59.695Z,1.30
2019-04-28T05:25:01.695Z,1.53
2019-04-28T05:29:57.054Z,1.10
2019-04-28T05:34:50.644Z,1.00
2019-04-28T05:39:42.327Z,1.10
2019-04-28T05:44:37.608Z,1.37
2019-04-28T05:49:57.095Z,2.20
2019-04-28T05:54:53.994Z,1.23
2019-04-28T06:00:22.033Z,1.37
2019-04-28T06:05:15.360Z,1.10
2019-04-28T06:10:10.171Z,1.40
2019-04-28T06:15:02.307Z,1.30
2019-04-28T06:19:55.630Z,1.70
2019-04-28T06:24:48.958Z,1.47
2019-04-28T06:29:42.278Z,0.97
2019-04-28T06:34:35.587Z,1.37
2019-04-28T06:39:28.908Z,1.10
2019-04-28T06:44:22.255Z,1.57
2019-04-28T06:49:15.586Z,1.60
2019-04-28T06:54:09.087Z,1.20
2019-04-28T06:59:02.422Z,1.20
2019-04-28T07:03:55.751Z,1.10
2019-04-28T07:08:49.071Z,1.00
2019-04-28T07:13:42.615Z,1.43
2019-04-28T07:18:35.946Z,1.30
2019-04-28T07:23:29.424Z,1.00
2019-04-28T07:28:22.746Z,1.33
2019-04-28T07:33:16.089Z,1.57
2019-04-28T07:38:09.509Z,1.47
2019-04-28T07:43:03.495Z,1.10
2019-04-28T07:47:56.826Z,1.60
2019-04-28T07:53:01.068Z,1.00
2019-04-28T07:57:54.382Z,0.90
2019-04-28T08:02:47.772Z,0.97
2019-04-28T08:07:41.521Z,1.20
2019-04-28T08:12:34.840Z,0.90
2019-04-28T08:17:28.173Z,1.10
2019-04-28T08:22:21.906Z,1.30
2019-04-28T08:27:15.239Z,1.00
2019-04-28T08:32:28.127Z,1.40
2019-04-28T08:37:21.454Z,1.50
2019-04-28T08:42:15.382Z,1.30
2019-04-28T08:47:08.797Z,1.10
2019-04-28T08:52:02.128Z,1.00
2019-04-28T08:56:55.849Z,1.10
2019-04-28T09:01:49.185Z,1.00
2019-04-28T09:06:42.489Z,0.93
2019-04-28T09:11:35.968Z,0.90
2019-04-28T09:16:29.290Z,0.80
2019-04-28T09:21:22.732Z,0.80
2019-04-28T09:26:16.081Z,0.80
2019-04-28T09:31:09.716Z,0.90
2019-04-28T09:36:03.197Z,1.17
2019-04-28T09:40:56.561Z,1.13
2019-04-28T09:46:05.061Z,1.20
2019-04-28T09:50:58.386Z,1.07
2019-04-28T09:55:51.723Z,1.47
2019-04-28T10:00:45.116Z,1.10
2019-04-28T10:05:38.831Z,1.13
2019-04-28T10:10:32.493Z,1.63
2019-04-28T10:15:25.807Z,1.37
2019-04-28T10:20:19.185Z,1.30
2019-04-28T10:25:12.513Z,1.57
2019-04-28T10:30:06.034Z,1.60
2019-04-28T10:34:59.713Z,1.20
2019-04-28T10:40:08.999Z,1.77
2019-04-28T10:45:02.351Z,1.90
2019-04-28T10:49:55.670Z,1.93
2019-04-28T10:54:49.002Z,1.63
2019-04-28T10:59:42.317Z,1.60
2019-04-28T11:05:08.059Z,1.77
2019-04-28T11:10:11.561Z,1.90
2019-04-28T11:15:04.897Z,1.87
2019-04-28T11:19:58.455Z,1.63
2019-04-28T11:24:51.775Z,2.00
2019-04-28T11:29:45.228Z,1.83
2019-04-28T11:34:46.144Z,2.57
2019-04-28T11:39:41.183Z,1.80
2019-04-28T11:44:34.593Z,1.70
2019-04-28T11:49:27.912Z,1.67
2019-04-28T11:54:24.008Z,2.37
2019-04-28T11:59:14.873Z,1.93
2019-04-28T12:04:09.086Z,2.13
2019-04-28T12:09:16.594Z,1.90
2019-04-28T12:14:27.404Z,2.07
2019-04-28T12:19:40.004Z,2.30
2019-04-28T12:24:33.361Z,1.80
2019-04-28T12:29:26.685Z,2.33
2019-04-28T12:34:20.029Z,2.40
2019-04-28T12:39:13.799Z,2.47
2019-04-28T12:44:07.196Z,1.97
2019-04-28T12:49:02.644Z,2.13
2019-04-28T12:53:58.683Z,1.87
2019-04-28T12:58:52.007Z,2.23
2019-04-28T13:03:56.914Z,2.50
2019-04-28T13:08:50.235Z,2.30
2019-04-28T13:13:46.611Z,2.00
2019-04-28T13:18:36.922Z,1.63
2019-04-28T13:23:30.369Z,2.10
2019-04-28T13:28:23.713Z,2.03
2019-04-28T13:33:17.437Z,2.10
2019-04-28T13:38:10.780Z,1.80
2019-04-28T13:43:04.199Z,1.87
2019-04-28T13:47:57.645Z,1.60
2019-04-28T13:52:51.255Z,1.73
2019-04-28T13:57:44.617Z,1.80
2019-04-28T14:02:49.143Z,1.67
2019-04-28T14:07:42.490Z,1.97
2019-04-28T14:12:36.459Z,2.77
2019-04-28T14:17:30.072Z,2.40
2019-04-28T14:22:23.406Z,2.77
2019-04-28T14:27:16.870Z,2.90
2019-04-28T14:32:10.259Z,3.30
2019-04-28T14:37:03.735Z,4.10
2019-04-28T14:41:57.027Z,4.00
2019-04-28T14:46:50.417Z,4.03
2019-04-28T14:51:43.854Z,4.50
2019-04-28T14:56:37.563Z,4.37
2019-04-28T15:02:08.626Z,4.40
2019-04-28T15:07:06.216Z,4.57
2019-04-28T15:12:02.224Z,4.10
2019-04-28T15:16:55.553Z,3.70
2019-04-28T15:21:49.536Z,3.63
2019-04-28T15:26:42.868Z,3.50
2019-04-28T15:31:36.913Z,3.70
2019-04-28T15:36:30.289Z,3.50
2019-04-28T15:41:23.965Z,3.40
2019-04-28T15:46:17.528Z,2.70
2019-04-28T15:51:11.024Z,2.33
2019-04-28T15:56:22.378Z,2.63
2019-04-28T16:01:16.202Z,2.37
2019-04-28T16:06:09.532Z,2.13
2019-04-28T16:11:03.900Z,2.43
2019-04-28T16:15:57.226Z,2.40
2019-04-28T16:20:50.694Z,2.23
2019-04-28T16:25:44.052Z,2.53
2019-04-28T16:30:37.386Z,2.33
2019-04-28T16:35:30.713Z,2.90
2019-04-28T16:40:24.028Z,3.00
2019-04-28T16:45:25.497Z,3.03
2019-04-28T16:50:18.836Z,3.47
2019-04-28T16:55:20.450Z,2.47
2019-04-28T17:00:21.441Z,2.20
2019-04-28T17:05:15.011Z,2.70
2019-04-28T17:10:08.404Z,2.40
2019-04-28T17:15:01.747Z,2.50
2019-04-28T17:19:55.454Z,2.60
2019-04-28T17:24:48.782Z,1.90
2019-04-28T17:29:42.254Z,1.90
2019-04-28T17:34:35.823Z,1.80
2019-04-28T17:39:29.206Z,1.57
2019-04-28T17:44:22.587Z,0.80
2019-04-28T17:49:15.917Z,1.10
2019-04-28T17:54:09.743Z,1.20
2019-04-28T17:59:03.936Z,1.20
2019-04-28T18:04:19.191Z,1.20
2019-04-28T18:09:12.495Z,1.10
2019-04-28T18:14:05.828Z,1.00
2019-04-28T18:19:01.933Z,1.20
2019-04-28T18:23:55.248Z,1.50
2019-04-28T18:28:48.929Z,1.80
2019-04-28T18:34:13.798Z,2.03
2019-04-28T18:39:20.880Z,2.03
2019-04-28T18:44:17.225Z,2.37
2019-04-28T18:49:10.673Z,2.37
2019-04-28T18:54:04.653Z,2.27
2019-04-28T18:58:58.324Z,2.37
2019-04-28T19:03:51.689Z,2.20
2019-04-28T19:08:49.601Z,2.53
2019-04-28T19:13:46.916Z,2.20
2019-04-28T19:18:40.809Z,2.10
2019-04-28T19:23:34.496Z,1.90
2019-04-28T19:28:27.817Z,2.33
2019-04-28T19:33:21.410Z,1.97
2019-04-28T19:38:14.811Z,2.30
2019-04-28T19:43:08.151Z,2.07
2019-04-28T19:48:01.477Z,2.17
2019-04-28T19:52:56.461Z,2.43
2019-04-28T19:58:00.341Z,2.00
2019-04-28T20:02:53.766Z,2.27
2019-04-28T20:07:47.116Z,2.70
2019-04-28T20:12:40.491Z,2.80
2019-04-28T20:17:33.828Z,2.47
2019-04-28T20:22:27.273Z,2.50
2019-04-28T20:27:20.742Z,3.27
2019-04-28T20:32:14.063Z,2.63
2019-04-28T20:37:12.165Z,2.80
2019-04-28T20:42:24.230Z,2.90
2019-04-28T20:47:17.537Z,2.87
2019-04-28T20:52:11.521Z,3.00
2019-04-28T20:57:04.840Z,3.03
2019-04-28T21:01:58.251Z,3.03
2019-04-28T21:06:51.810Z,2.90
2019-04-28T21:11:45.342Z,3.43
2019-04-28T21:16:38.658Z,3.47
2019-04-28T21:21:32.694Z,3.23
2019-04-28T21:26:26.006Z,3.60
2019-04-28T21:31:19.434Z,3.83
2019-04-28T21:36:12.758Z,3.50
2019-04-28T21:41:06.213Z,3.87
2019-04-28T21:46:18.940Z,2.80
2019-04-28T21:51:12.465Z,3.00
2019-04-28T21:56:05.668Z,2.40
2019-04-28T22:00:59.385Z,2.57
2019-04-28T22:05:53.098Z,2.47
2019-04-28T22:10:46.457Z,2.50
2019-04-28T22:15:39.788Z,2.60
2019-04-28T22:20:33.106Z,2.67
2019-04-28T22:25:26.945Z,2.73
2019-04-28T22:30:20.576Z,2.33
2019-04-28T22:35:13.901Z,2.77
2019-04-28T22:40:07.266Z,2.40
2019-04-28T22:45:00.653Z,2.43
2019-04-28T22:49:54.193Z,2.40
2019-04-28T22:55:06.788Z,2.57
2019-04-28T23:00:00.232Z,2.47
2019-04-28T23:04:59.390Z,2.30
2019-04-28T23:09:52.712Z,2.23
2019-04-28T23:14:46.194Z,2.20
2019-04-28T23:19:40.736Z,2.03
2019-04-28T23:24:34.084Z,2.13
2019-04-28T23:29:30.352Z,1.90
2019-04-28T23:34:20.666Z,2.00
2019-04-28T23:39:13.976Z,2.00
2019-04-28T23:44:07.677Z,1.80
2019-04-28T23:49:00.987Z,1.70
2019-04-28T23:54:03.137Z,1.60
2019-04-28T23:58:56.465Z,1.70
